Main page
METAR-TAF:

METAR-TAF

Airports :

Lavan Island, Iran

Lavan Airport

latitude: 26-48-37N, longitude: 53-21-22E, elevation: 23 m

Current weather observation

The report was made 6 hours and 31 minutes ago, at 14:00 UTC
Wind 6 kt from the North/Northwest
Temperature 31°C
Humidity 63%
Pressure 1007 hPa
Visibility: 3500 m
haze

METAR: OIBV 301400Z 34006KT 3500 HZ NSC 31/23 Q1007

Time: 01:01 (20:31 UTC)


TAF: missing

Weather observations and forecasts of more than 4000 airports (METAR and TAF reports).

The available stations are represented by yellow and red dots on the map.

Hover mouse over dot to see the name of the station.

Then click to see weather observations and forecasts.

To change the map : click on the green buttons with a black cross to zoom in, on the green button with a dash to zoom out, or on the green arrows for adjacent maps.


METAR-TAF: